Time;durP1;ratioP1;P1;durP2;ratioP2;P2;SDS_P1;SDS_P2;PMS_P1;PMS_P2;Temp;Humidity;BMP_temperature;BMP_pressure;BME280_temperature;BME280_humidity;BME280_pressure;Samples;Min_cycle;Max_cycle;Signal;HPM_P1;HPM_P2
2023/10/21 00:00:27;;;;;;;13.75;4.88;;;;;;;14.60;100.00;97884.59;5010676;28;20294;-60
2023/10/21 00:02:52;;;;;;;7.68;4.72;;;;;;;14.84;100.00;97928.34;5029929;28;20687;-60
2023/10/21 00:05:18;;;;;;;11.35;5.20;;;;;;;14.73;100.00;97899.88;5030076;28;20273;-61
2023/10/21 00:07:43;;;;;;;11.15;5.43;;;;;;;14.84;100.00;97904.91;5030004;28;20699;-61
2023/10/21 00:10:09;;;;;;;7.50;5.35;;;;;;;14.76;100.00;97904.81;5030271;28;20190;-60
2023/10/21 00:12:36;;;;;;;14.38;5.28;;;;;;;14.57;100.00;97894.47;5049341;28;20281;-61
2023/10/21 00:15:05;;;;;;;7.10;5.38;;;;;;;14.80;100.00;97916.56;5089850;28;20232;-60
2023/10/21 00:17:30;;;;;;;12.63;5.88;;;;;;;14.66;100.00;97904.84;5089872;28;20227;-60
2023/10/21 00:19:56;;;;;;;8.57;5.35;;;;;;;14.61;100.00;97890.59;5089602;28;20199;-60
2023/10/21 00:22:21;;;;;;;9.15;5.63;;;;;;;14.65;100.00;97929.22;5089828;28;20196;-60
2023/10/21 00:24:47;;;;;;;7.10;4.97;;;;;;;14.61;100.00;97920.06;5089972;28;20611;-60
2023/10/21 00:27:12;;;;;;;8.80;5.03;;;;;;;14.52;100.00;97910.50;5089784;28;20184;-60
2023/10/21 00:29:38;;;;;;;9.45;4.47;;;;;;;14.75;100.00;97937.03;5089818;28;20188;-61
2023/10/21 00:32:04;;;;;;;5.20;4.18;;;;;;;14.60;100.00;97891.56;5069239;28;20805;-61
2023/10/21 00:34:30;;;;;;;8.63;5.32;;;;;;;14.73;100.00;97915.50;5069392;28;20197;-59
2023/10/21 00:36:56;;;;;;;14.82;5.10;;;;;;;14.55;100.00;97907.63;5069206;28;20223;-60
2023/10/21 00:39:22;;;;;;;7.63;3.58;;;;;;;14.51;100.00;97900.22;5069644;28;20192;-59
2023/10/21 00:41:47;;;;;;;12.13;4.90;;;;;;;14.65;100.00;97931.00;5069303;28;20188;-60
2023/10/21 00:44:13;;;;;;;10.05;4.63;;;;;;;14.52;100.00;97907.88;5069502;28;20200;-60
2023/10/21 00:46:40;;;;;;;11.75;3.97;;;;;;;14.56;100.00;97905.81;5069183;28;20633;-61
2023/10/21 00:49:06;;;;;;;13.07;4.57;;;;;;;14.58;100.00;97929.94;5069145;28;20188;-61
2023/10/21 00:51:32;;;;;;;7.80;4.75;;;;;;;14.51;100.00;97921.88;5069113;28;20547;-61
2023/10/21 00:54:00;;;;;;;9.77;4.43;;;;;;;14.47;100.00;97912.69;5069367;28;20691;-61
2023/10/21 00:56:26;;;;;;;7.93;4.07;;;;;;;14.27;100.00;97897.25;5068820;28;20299;-61
2023/10/21 00:58:51;;;;;;;9.15;4.63;;;;;;;14.28;100.00;97914.53;5068967;28;20268;-61
2023/10/21 01:01:17;;;;;;;8.90;4.53;;;;;;;14.19;100.00;97897.97;5068957;28;20554;-61
2023/10/21 01:03:42;;;;;;;9.77;4.35;;;;;;;14.09;100.00;97894.53;5068830;28;20246;-61
2023/10/21 01:06:08;;;;;;;7.65;4.00;;;;;;;13.97;100.00;97889.59;5068879;28;20176;-61
2023/10/21 01:08:43;;;;;;;7.15;4.55;;;;;;;14.18;100.00;97930.09;5074013;28;20636;-61
2023/10/21 01:11:10;;;;;;;4.43;4.03;;;;;;;14.29;100.00;97937.78;5111766;28;20558;-61
2023/10/21 01:13:35;;;;;;;9.57;4.22;;;;;;;14.35;100.00;97931.22;5111470;28;20694;-61
2023/10/21 01:16:01;;;;;;;8.90;4.60;;;;;;;14.18;100.00;97900.69;5058846;28;20207;-61
2023/10/21 01:18:30;;;;;;;6.80;4.32;;;;;;;14.23;100.00;97914.13;5111733;28;20262;-61
2023/10/21 01:20:56;;;;;;;12.07;4.70;;;;;;;14.35;100.00;97931.22;5111626;28;20591;-61
2023/10/21 01:23:21;;;;;;;6.10;4.40;;;;;;;14.22;100.00;97915.91;5111285;28;20271;-61
2023/10/21 01:25:47;;;;;;;11.73;4.30;;;;;;;14.27;100.00;97923.28;5111923;28;20258;-61
2023/10/21 01:28:12;;;;;;;7.70;4.40;;;;;;;14.20;100.00;97927.41;5111536;28;20211;-61
2023/10/21 01:30:37;;;;;;;10.13;4.93;;;;;;;13.99;100.00;97895.50;5111538;28;20543;-61
2023/10/21 01:33:03;;;;;;;11.10;5.18;;;;;;;14.10;100.00;97913.53;5067421;28;20250;-61
2023/10/21 01:35:29;;;;;;;8.55;4.78;;;;;;;14.03;100.00;97895.09;5068577;28;20214;-61
2023/10/21 01:37:54;;;;;;;7.03;4.45;;;;;;;14.14;100.00;97922.72;5068408;28;20389;-61
2023/10/21 01:40:20;;;;;;;10.82;4.90;;;;;;;13.88;100.00;97880.06;5068473;28;20272;-60
2023/10/21 01:42:45;;;;;;;7.18;5.05;;;;;;;14.02;100.00;97929.88;5068463;28;20671;-60
2023/10/21 01:45:10;;;;;;;8.77;5.00;;;;;;;14.07;100.00;97919.03;5068456;28;20284;-60
2023/10/21 01:47:36;;;;;;;10.43;4.97;;;;;;;14.11;100.00;97917.81;5028237;28;20680;-60
2023/10/21 01:50:07;;;;;;;10.10;4.78;;;;;;;14.16;100.00;97915.59;5028359;28;20669;-60
2023/10/21 01:52:34;;;;;;;6.63;4.47;;;;;;;14.13;100.00;97918.50;5028356;28;20214;-61
2023/10/21 01:55:00;;;;;;;9.20;5.07;;;;;;;13.93;100.00;97876.06;5028375;28;20216;-60
2023/10/21 01:57:26;;;;;;;9.57;4.75;;;;;;;14.18;100.00;97913.69;5028203;28;20246;-60
2023/10/21 01:59:51;;;;;;;9.05;5.18;;;;;;;14.14;100.00;97923.56;5008326;28;20216;-61
2023/10/21 02:02:17;;;;;;;12.90;5.55;;;;;;;14.10;100.00;97911.78;5008381;28;20198;-61
2023/10/21 02:04:42;;;;;;;10.50;5.72;;;;;;;14.12;100.00;97945.47;5024063;28;20641;-59
2023/10/21 02:07:09;;;;;;;9.07;5.78;;;;;;;14.12;100.00;97935.06;5028196;28;20194;-61
2023/10/21 02:09:34;;;;;;;13.77;6.50;;;;;;;13.87;100.00;97904.38;5028305;28;20218;-59
2023/10/21 02:12:00;;;;;;;10.32;6.10;;;;;;;14.08;100.00;97925.88;5028154;28;20205;-59
2023/10/21 02:14:25;;;;;;;11.82;6.53;;;;;;;14.22;100.00;97946.28;4988661;28;20250;-61
2023/10/21 02:16:54;;;;;;;12.15;6.38;;;;;;;14.18;100.00;97944.91;4988776;28;20668;-61
2023/10/21 02:19:19;;;;;;;11.68;6.25;;;;;;;14.16;100.00;97933.81;5004540;28;20628;-61
2023/10/21 02:21:46;;;;;;;18.42;6.45;;;;;;;14.09;100.00;97943.13;5008439;28;20183;-61
2023/10/21 02:24:11;;;;;;;10.57;6.10;;;;;;;13.93;100.00;97916.88;5008492;28;20195;-61
2023/10/21 02:26:37;;;;;;;10.18;6.15;;;;;;;14.01;100.00;97940.41;5008626;28;20273;-59
2023/10/21 02:29:03;;;;;;;10.77;6.15;;;;;;;13.99;100.00;97937.94;5008294;28;20274;-60
2023/10/21 02:31:29;;;;;;;12.65;6.32;;;;;;;14.08;100.00;97957.09;5033977;28;20194;-60
2023/10/21 02:33:54;;;;;;;12.13;6.45;;;;;;;13.87;100.00;97925.19;5067697;28;20196;-60
2023/10/21 02:36:20;;;;;;;10.18;6.00;;;;;;;14.11;100.00;97969.84;5027584;28;20242;-60
2023/10/21 02:38:45;;;;;;;14.23;6.45;;;;;;;14.04;100.00;97947.91;5028136;28;20182;-60
2023/10/21 02:41:11;;;;;;;11.13;6.82;;;;;;;13.86;100.00;97939.16;5027883;28;20256;-60
2023/10/21 02:43:36;;;;;;;9.70;6.32;;;;;;;13.72;100.00;97934.38;5028670;28;20197;-60
2023/10/21 02:46:11;;;;;;;10.30;6.30;;;;;;;13.73;100.00;97928.22;5046803;28;20274;-60
2023/10/21 02:48:40;;;;;;;10.68;5.95;;;;;;;14.02;100.00;97979.28;5051497;28;20261;-60
2023/10/21 02:51:13;;;;;;;7.90;6.07;;;;;;;13.77;100.00;97956.41;5051332;28;20194;-60
2023/10/21 02:53:40;;;;;;;12.10;6.53;;;;;;;13.87;100.00;97962.44;5051515;28;20182;-60
2023/10/21 02:56:08;;;;;;;9.35;6.07;;;;;;;13.76;100.00;97948.75;5051134;28;20213;-60
2023/10/21 02:58:37;;;;;;;11.32;6.43;;;;;;;14.01;100.00;97974.22;5051293;28;20277;-60
2023/10/21 03:01:20;;;;;;;11.57;6.68;;;;;;;14.03;100.00;97993.94;5011289;28;20191;-60
2023/10/21 03:03:47;;;;;;;13.20;6.93;;;;;;;13.74;100.00;97958.44;4991947;28;20187;-60
2023/10/21 03:06:14;;;;;;;10.75;7.70;;;;;;;13.80;100.00;97979.53;4993366;28;20250;-60
2023/10/21 03:08:40;;;;;;;15.00;7.43;;;;;;;13.66;100.00;97963.53;5011261;28;20262;-60
2023/10/21 03:11:06;;;;;;;14.25;7.45;;;;;;;13.93;100.00;98002.72;5019037;28;20294;-60
2023/10/21 03:13:33;;;;;;;11.18;6.95;;;;;;;13.91;100.00;97987.22;5030913;28;20331;-60
2023/10/21 03:15:59;;;;;;;12.50;7.18;;;;;;;13.80;100.00;97981.31;5031061;28;20279;-60
2023/10/21 03:18:25;;;;;;;17.80;7.35;;;;;;;13.78;100.00;98014.44;5030981;28;20277;-60
2023/10/21 03:20:51;;;;;;;10.02;6.40;;;;;;;13.61;100.00;97983.91;5030910;28;20199;-60
2023/10/21 03:23:17;;;;;;;11.57;7.05;;;;;;;13.50;100.00;97978.81;5030897;28;20187;-60
2023/10/21 03:25:42;;;;;;;11.63;6.57;;;;;;;13.64;100.00;98014.84;5030957;28;20792;-60
2023/10/21 03:28:08;;;;;;;10.30;7.03;;;;;;;13.72;100.00;98005.38;5030819;28;20349;-59
2023/10/21 03:30:34;;;;;;;9.45;7.15;;;;;;;13.65;100.00;97998.28;5030578;28;20716;-60
2023/10/21 03:32:59;;;;;;;13.35;7.40;;;;;;;13.80;100.00;98022.91;5066437;28;20264;-60
2023/10/21 03:35:24;;;;;;;10.52;6.82;;;;;;;13.66;100.00;98000.72;5070837;28;20189;-60
2023/10/21 03:37:50;;;;;;;13.18;7.75;;;;;;;13.71;100.00;98008.16;5070468;28;20698;-60
2023/10/21 03:40:16;;;;;;;14.20;7.50;;;;;;;13.84;100.00;98019.09;5070349;28;20288;-60
2023/10/21 03:42:42;;;;;;;14.25;6.65;;;;;;;13.70;100.00;98015.09;5070506;28;20226;-60
2023/10/21 03:45:07;;;;;;;12.73;8.30;;;;;;;13.39;100.00;97990.13;5070472;28;20181;-60
2023/10/21 03:47:34;;;;;;;10.05;7.50;;;;;;;13.63;100.00;98020.97;5070391;28;20188;-61
2023/10/21 03:49:59;;;;;;;14.15;7.93;;;;;;;13.53;100.00;98004.53;5070633;28;20630;-61
2023/10/21 03:52:25;;;;;;;13.32;7.25;;;;;;;13.52;100.00;97992.47;5070297;28;20193;-61
2023/10/21 03:54:50;;;;;;;11.23;7.38;;;;;;;13.58;100.00;98023.97;5069666;28;20263;-60
2023/10/21 03:57:16;;;;;;;13.75;7.28;;;;;;;13.43;100.00;98008.88;5069804;28;20300;-60
2023/10/21 03:59:41;;;;;;;10.85;7.43;;;;;;;13.54;100.00;98019.19;5070186;28;20672;-60
2023/10/21 04:02:07;;;;;;;12.05;7.22;;;;;;;13.59;100.00;98009.22;5101621;28;20184;-61
2023/10/21 04:04:33;;;;;;;11.20;7.07;;;;;;;13.50;100.00;98013.44;5113130;28;20263;-60
2023/10/21 04:06:59;;;;;;;12.52;7.20;;;;;;;13.36;100.00;97993.00;5113181;28;20270;-60
2023/10/21 04:09:25;;;;;;;11.73;7.32;;;;;;;13.28;100.00;97982.44;5112996;28;20630;-61
2023/10/21 04:11:51;;;;;;;11.82;7.10;;;;;;;13.50;100.00;98010.00;5113031;28;20605;-60
2023/10/21 04:14:16;;;;;;;14.65;7.20;;;;;;;13.21;100.00;97970.09;5089694;28;20207;-60
2023/10/21 04:16:44;;;;;;;10.57;7.72;;;;;;;13.43;100.00;98001.09;5089878;28;20220;-60
2023/10/21 04:19:10;;;;;;;11.52;7.03;;;;;;;13.35;100.00;97995.75;5089931;28;20279;-60
2023/10/21 04:21:36;;;;;;;8.68;6.65;;;;;;;13.36;100.00;97993.00;5089938;28;20264;-61
2023/10/21 04:24:03;;;;;;;12.10;7.38;;;;;;;13.37;100.00;97999.03;5089969;28;20181;-61
2023/10/21 04:26:29;;;;;;;16.50;7.53;;;;;;;13.27;100.00;97983.41;5089894;28;20199;-60
2023/10/21 04:28:54;;;;;;;14.02;7.55;;;;;;;13.46;100.00;97983.44;5089995;28;20176;-60
2023/10/21 04:31:20;;;;;;;13.02;7.93;;;;;;;13.39;100.00;97994.50;5089896;28;20638;-60
2023/10/21 04:33:45;;;;;;;13.27;7.60;;;;;;;13.24;100.00;97949.88;5089985;28;20554;-60
2023/10/21 04:36:10;;;;;;;12.25;7.40;;;;;;;13.35;100.00;97985.34;5089898;28;20208;-60
2023/10/21 04:38:36;;;;;;;13.57;6.53;;;;;;;13.48;100.00;97980.72;5049460;28;20193;-60
2023/10/21 04:41:02;;;;;;;14.45;7.30;;;;;;;13.53;100.00;98001.94;5049719;28;20664;-60
2023/10/21 04:43:28;;;;;;;13.02;7.40;;;;;;;13.29;100.00;97965.09;5049673;28;20595;-60
2023/10/21 04:45:53;;;;;;;10.60;6.78;;;;;;;13.43;100.00;97991.53;5049597;28;20190;-60
2023/10/21 04:48:19;;;;;;;9.95;6.60;;;;;;;13.53;100.00;98009.75;5048786;28;20178;-60
2023/10/21 04:50:44;;;;;;;10.82;6.32;;;;;;;13.40;100.00;97998.75;5049538;28;20797;-61
2023/10/21 04:53:09;;;;;;;12.15;7.55;;;;;;;13.45;100.00;98022.56;5049255;28;20197;-60
2023/10/21 04:55:35;;;;;;;14.27;7.22;;;;;;;13.30;100.00;97988.31;5049631;28;20668;-61
2023/10/21 04:58:00;;;;;;;8.95;6.80;;;;;;;13.52;100.00;98014.09;5049294;28;20186;-61
2023/10/21 05:00:25;;;;;;;11.10;6.70;;;;;;;13.41;100.00;97990.03;5049410;28;20552;-61
2023/10/21 05:02:51;;;;;;;13.65;6.30;;;;;;;13.57;100.00;98022.34;5049268;28;20197;-61
2023/10/21 05:05:16;;;;;;;9.40;7.20;;;;;;;13.60;100.00;98027.25;5049199;28;20197;-61
2023/10/21 05:07:42;;;;;;;11.85;7.60;;;;;;;13.66;100.00;98037.13;5049043;28;20190;-61
2023/10/21 05:10:08;;;;;;;10.82;7.50;;;;;;;13.51;100.00;98014.22;5063571;28;20612;-60
2023/10/21 05:12:34;;;;;;;11.02;7.15;;;;;;;13.49;100.00;98004.00;5069157;28;20710;-60
2023/10/21 05:15:00;;;;;;;10.10;6.63;;;;;;;13.52;100.00;98005.47;5068951;28;20196;-60
2023/10/21 05:17:25;;;;;;;12.88;6.75;;;;;;;13.71;100.00;98050.53;5069017;28;20228;-60
2023/10/21 05:19:50;;;;;;;10.70;7.03;;;;;;;13.73;100.00;98050.41;5069032;28;20185;-60
2023/10/21 05:22:16;;;;;;;11.02;7.30;;;;;;;13.77;100.00;98044.00;5068985;28;20319;-60
2023/10/21 05:24:42;;;;;;;12.52;7.35;;;;;;;13.89;100.00;98045.53;5100010;28;20219;-60
2023/10/21 05:27:09;;;;;;;15.45;7.70;;;;;;;13.83;100.00;98040.88;5111852;28;20202;-60
2023/10/21 05:29:34;;;;;;;11.43;8.13;;;;;;;13.76;100.00;98048.38;5111797;28;20186;-60
2023/10/21 05:32:00;;;;;;;11.00;7.18;;;;;;;13.89;100.00;98042.94;5111911;28;20343;-60
2023/10/21 05:34:25;;;;;;;19.80;8.35;;;;;;;14.01;100.00;98062.66;5112143;28;20628;-60
2023/10/21 05:36:51;;;;;;;13.30;9.73;;;;;;;13.93;100.00;98046.91;5111760;28;20200;-60
2023/10/21 05:39:16;;;;;;;14.75;10.13;;;;;;;13.77;100.00;98029.22;5112116;28;20636;-61
2023/10/21 05:41:41;;;;;;;16.55;9.70;;;;;;;14.06;100.00;98060.50;5111761;28;20588;-60
2023/10/21 05:44:08;;;;;;;15.68;9.55;;;;;;;13.93;100.00;98045.13;5111735;28;20181;-61
2023/10/21 05:46:33;;;;;;;17.90;11.15;;;;;;;14.09;100.00;98055.00;5048540;28;20562;-60
2023/10/21 05:49:01;;;;;;;18.35;10.52;;;;;;;14.09;100.00;98053.22;5048767;28;20190;-61
2023/10/21 05:51:27;;;;;;;17.85;10.57;;;;;;;14.05;100.00;98057.06;5048655;28;20343;-60
2023/10/21 05:53:52;;;;;;;14.63;10.98;;;;;;;14.20;100.00;98071.34;5048716;28;20181;-60
2023/10/21 05:56:18;;;;;;;21.20;10.48;;;;;;;14.33;100.00;98105.75;5008897;28;20728;-60
2023/10/21 05:58:43;;;;;;;18.83;11.82;;;;;;;14.13;100.00;98066.78;5008854;28;20265;-60
2023/10/21 06:01:11;;;;;;;23.88;12.63;;;;;;;14.19;100.00;98066.28;5008888;28;20207;-61
2023/10/21 06:03:37;;;;;;;23.75;11.45;;;;;;;14.43;100.00;98100.53;5008846;28;20261;-60
2023/10/21 06:06:02;;;;;;;14.40;11.73;;;;;;;14.53;100.00;98117.00;5008664;28;20516;-60
2023/10/21 06:08:29;;;;;;;20.42;11.80;;;;;;;14.67;100.00;98108.75;5008772;28;20432;-61
2023/10/21 06:10:56;;;;;;;22.40;12.40;;;;;;;14.46;100.00;98074.25;5008689;28;20241;-60
2023/10/21 06:13:21;;;;;;;21.75;12.55;;;;;;;14.50;100.00;98080.81;4988895;28;20289;-60
2023/10/21 06:15:48;;;;;;;17.13;13.02;;;;;;;14.74;100.00;98105.47;4929636;29;20661;-61
2023/10/21 06:18:13;;;;;;;28.52;13.75;;;;;;;14.80;100.00;98115.34;4922669;29;20212;-60
2023/10/21 06:20:39;;;;;;;24.35;14.43;;;;;;;14.61;100.00;98081.50;4915940;29;20740;-60
2023/10/21 06:23:05;;;;;;;30.40;15.10;;;;;;;14.70;100.00;98090.28;4920306;29;20214;-59
2023/10/21 06:25:31;;;;;;;26.70;15.90;;;;;;;14.76;100.00;98105.34;4953790;29;20271;-60
2023/10/21 06:27:58;;;;;;;24.83;15.88;;;;;;;14.76;100.00;98113.16;4968584;28;20738;-60
2023/10/21 06:30:23;;;;;;;32.45;16.67;;;;;;;14.88;100.00;98123.28;4973023;28;20203;-60
2023/10/21 06:32:49;;;;;;;28.80;16.48;;;;;;;14.85;100.00;98112.31;4973058;28;20184;-59
2023/10/21 06:35:14;;;;;;;30.70;16.10;;;;;;;15.04;100.00;98126.13;4973288;28;20188;-60
2023/10/21 06:37:40;;;;;;;27.33;15.68;;;;;;;15.08;100.00;98131.88;4987984;28;20257;-61
2023/10/21 06:40:06;;;;;;;31.00;16.27;;;;;;;14.94;100.00;98116.69;4992631;28;20187;-61
2023/10/21 06:42:32;;;;;;;29.88;15.88;;;;;;;14.94;100.00;98114.09;4992314;28;20183;-61
2023/10/21 06:44:58;;;;;;;21.48;15.30;;;;;;;14.99;100.00;98101.47;5021101;28;20190;-60
2023/10/21 06:47:24;;;;;;;27.67;16.90;;;;;;;15.28;100.00;98126.50;5079302;28;20525;-60
2023/10/21 06:49:49;;;;;;;29.25;15.55;;;;;;;15.15;100.00;98096.50;5094669;28;20236;-61
2023/10/21 06:52:17;;;;;;;29.05;15.10;;;;;;;15.24;100.00;98106.09;5094191;28;20180;-61
2023/10/21 06:54:43;;;;;;;18.75;13.38;;;;;;;15.43;100.00;98129.50;5071093;28;20188;-61
2023/10/21 06:57:09;;;;;;;21.05;13.70;;;;;;;15.37;100.00;98111.84;5071428;28;20722;-59
2023/10/21 06:59:34;;;;;;;23.63;13.05;;;;;;;15.40;100.00;98108.97;5071447;28;20296;-60
2023/10/21 07:02:00;;;;;;;22.83;14.05;;;;;;;15.45;100.00;98117.19;5071568;28;20173;-60
2023/10/21 07:04:25;;;;;;;16.67;13.35;;;;;;;15.51;100.00;98106.19;5071412;28;20213;-61
2023/10/21 07:06:50;;;;;;;24.67;13.32;;;;;;;15.69;100.00;98125.31;5071535;28;20284;-61
2023/10/21 07:09:16;;;;;;;21.60;13.20;;;;;;;15.84;100.00;98124.69;5071433;28;20180;-61
2023/10/21 07:11:41;;;;;;;25.33;14.02;;;;;;;15.99;100.00;98122.44;5071258;28;20315;-61
2023/10/21 07:14:07;;;;;;;21.33;13.38;;;;;;;15.98;100.00;98110.34;5030978;28;20233;-61
2023/10/21 07:16:33;;;;;;;20.27;14.07;;;;;;;16.16;100.00;98129.47;5031089;28;20221;-60
2023/10/21 07:18:58;;;;;;;23.02;14.65;;;;;;;16.19;100.00;98118.72;5031333;28;20193;-61
2023/10/21 07:21:25;;;;;;;34.83;15.25;;;;;;;16.49;100.00;98155.81;5031244;28;20660;-60
2023/10/21 07:23:51;;;;;;;23.80;13.93;;;;;;;16.40;100.00;98117.53;5031194;28;20186;-61
2023/10/21 07:26:16;;;;;;;24.02;15.75;;;;;;;16.65;100.00;98148.16;5045869;28;20368;-61
2023/10/21 07:28:42;;;;;;;25.90;16.80;;;;;;;16.70;100.00;98150.31;5050913;28;20237;-61
2023/10/21 07:31:07;;;;;;;30.25;16.92;;;;;;;16.76;100.00;98149.72;5049660;28;20174;-61
2023/10/21 07:33:33;;;;;;;29.83;16.85;;;;;;;16.64;100.00;98109.09;5050876;28;20185;-61
2023/10/21 07:35:58;;;;;;;31.60;17.50;;;;;;;16.92;100.00;98139.41;5051010;28;20309;-61
2023/10/21 07:38:24;;;;;;;32.45;17.70;;;;;;;16.91;100.00;98124.69;5050794;28;20280;-61
2023/10/21 07:40:50;;;;;;;32.05;16.73;;;;;;;16.98;100.00;98131.78;5050819;28;20196;-61
2023/10/21 07:43:18;;;;;;;24.48;16.08;;;;;;;17.17;100.00;98144.66;5030727;28;20186;-61
2023/10/21 07:45:44;;;;;;;25.30;16.55;;;;;;;17.05;100.00;98113.69;5061107;28;20181;-61
2023/10/21 07:48:10;;;;;;;27.98;17.35;;;;;;;17.20;100.00;98127.84;5070764;28;20550;-61
2023/10/21 07:50:36;;;;;;;27.27;17.33;;;;;;;17.29;100.00;98132.16;5070759;28;20180;-61
2023/10/21 07:53:01;;;;;;;29.48;18.00;;;;;;;17.45;100.00;98156.69;5070628;28;20233;-61
2023/10/21 07:55:28;;;;;;;24.27;17.20;;;;;;;17.35;100.00;98114.06;5070620;28;20180;-61
2023/10/21 07:57:54;;;;;;;25.52;17.58;;;;;;;17.50;100.00;98116.97;5070215;28;20262;-61
2023/10/21 08:00:20;;;;;;;32.70;17.95;;;;;;;17.69;100.00;98135.03;5070513;28;20196;-61
2023/10/21 08:02:45;;;;;;;28.92;17.92;;;;;;;17.85;100.00;98138.56;5070426;28;20192;-61
2023/10/21 08:05:10;;;;;;;33.47;19.02;;;;;;;17.81;100.00;98125.94;5070335;28;20172;-61
2023/10/21 08:07:37;;;;;;;32.22;17.73;;;;;;;17.97;100.00;98146.97;5070594;28;20707;-61
2023/10/21 08:10:06;;;;;;;28.90;18.10;;;;;;;17.91;99.59;98098.69;5070275;28;20709;-61
2023/10/21 08:12:34;;;;;;;26.63;15.15;;;;;;;18.03;99.31;98128.84;5010309;28;20209;-62
2023/10/21 08:15:07;;;;;;;23.40;14.65;;;;;;;18.21;99.12;98131.34;5026312;28;20201;-61
2023/10/21 08:17:34;;;;;;;22.98;14.45;;;;;;;18.12;98.94;98114.78;5030162;28;20217;-60
2023/10/21 08:19:59;;;;;;;25.00;14.85;;;;;;;18.21;99.08;98111.22;5030431;28;20232;-60
2023/10/21 08:22:25;;;;;;;26.55;14.80;;;;;;;18.55;98.60;98132.13;5029995;28;20300;-61
2023/10/21 08:24:50;;;;;;;25.30;15.02;;;;;;;18.60;98.28;98141.13;5030031;28;20273;-61
2023/10/21 08:27:16;;;;;;;24.52;14.52;;;;;;;18.56;98.06;98121.47;5029832;28;20313;-61
2023/10/21 08:29:42;;;;;;;21.15;14.38;;;;;;;18.56;97.98;98115.41;5029893;28;20738;-62
2023/10/21 08:32:07;;;;;;;25.67;13.75;;;;;;;18.87;97.38;98138.22;5029860;28;20190;-60
2023/10/21 08:34:32;;;;;;;21.25;12.85;;;;;;;18.92;97.11;98140.34;5009950;28;20260;-60
2023/10/21 08:36:59;;;;;;;21.83;12.93;;;;;;;19.08;96.60;98148.22;5009876;28;20229;-60
2023/10/21 08:39:24;;;;;;;24.55;11.73;;;;;;;19.13;95.34;98144.09;5009921;28;20186;-62
2023/10/21 08:41:50;;;;;;;22.95;13.00;;;;;;;19.03;93.86;98113.78;5009442;28;20236;-60
2023/10/21 08:44:16;;;;;;;20.17;12.20;;;;;;;19.34;93.26;98143.63;5058358;28;20262;-60
2023/10/21 08:46:43;;;;;;;22.23;12.13;;;;;;;19.42;94.04;98160.19;5069470;28;20180;-61
2023/10/21 08:49:10;;;;;;;20.70;12.43;;;;;;;19.32;94.08;98108.88;5069426;28;20597;-61
2023/10/21 08:51:37;;;;;;;24.90;13.18;;;;;;;19.61;93.25;98145.88;5009636;28;20254;-61
2023/10/21 08:54:03;;;;;;;17.15;12.02;;;;;;;19.57;93.06;98123.56;5009705;28;20187;-61
2023/10/21 08:56:35;;;;;;;21.85;11.70;;;;;;;19.65;91.43;98113.06;5009715;28;20241;-61
2023/10/21 08:59:01;;;;;;;22.50;11.75;;;;;;;19.72;89.76;98100.91;5009435;28;20363;-61
2023/10/21 09:01:26;;;;;;;19.10;11.32;;;;;;;19.79;89.82;98107.94;5009507;28;20292;-61
2023/10/21 09:03:52;;;;;;;19.10;10.48;;;;;;;19.79;89.12;98102.69;5009385;28;20214;-61
2023/10/21 09:06:18;;;;;;;16.13;10.35;;;;;;;19.94;89.48;98110.66;5005672;28;20202;-61
2023/10/21 09:08:44;;;;;;;19.27;11.57;;;;;;;20.00;89.75;98107.34;5009398;28;20190;-61
2023/10/21 09:11:13;;;;;;;17.83;10.85;;;;;;;20.01;88.46;98101.13;5009370;28;20191;-61
2023/10/21 09:13:39;;;;;;;24.02;12.23;;;;;;;20.32;88.28;98128.22;5009308;28;20205;-61
2023/10/21 09:16:29;;;;;;;26.50;12.70;;;;;;;20.41;87.36;98138.53;5009119;28;20222;-61
2023/10/21 09:18:57;;;;;;;24.58;11.68;;;;;;;20.36;86.93;98111.13;5009219;28;20229;-61
2023/10/21 09:21:32;;;;;;;23.83;12.57;;;;;;;20.56;86.54;98133.34;5009188;28;20233;-61
2023/10/21 09:24:03;;;;;;;21.65;11.23;;;;;;;20.50;86.02;98087.56;5028898;28;20271;-60
2023/10/21 09:26:32;;;;;;;17.25;9.05;;;;;;;20.50;84.65;98078.84;5028872;28;20672;-61
2023/10/21 09:29:12;;;;;;;19.33;9.57;;;;;;;20.79;83.34;98107.88;5028749;28;20182;-60
2023/10/21 09:31:51;;;;;;;16.23;8.90;;;;;;;20.88;83.23;98106.84;5028735;28;20229;-60
2023/10/21 09:34:27;;;;;;;41.45;18.33;;;;;;;20.95;83.32;98116.50;4989190;28;20624;-61
2023/10/21 09:37:01;;;;;;;24.65;11.52;;;;;;;20.96;80.97;98091.00;4995653;28;20712;-61
2023/10/21 09:39:33;;;;;;;13.23;7.75;;;;;;;21.01;77.16;98072.88;5008686;28;20182;-61
2023/10/21 09:42:00;;;;;;;24.73;13.60;;;;;;;21.27;77.20;98100.44;5008977;28;20186;-61
2023/10/21 09:44:26;;;;;;;25.35;13.15;;;;;;;21.14;77.61;98058.13;5008733;28;20193;-61
2023/10/21 09:46:55;;;;;;;83.85;36.83;;;;;;;21.23;78.29;98053.59;4969735;28;20195;-61
2023/10/21 09:49:23;;;;;;;23.05;10.75;;;;;;;21.38;77.86;98067.59;4975224;28;20187;-61
2023/10/21 09:52:06;;;;;;;23.55;9.13;;;;;;;21.59;77.84;98081.69;4989148;28;20183;-61
2023/10/21 09:54:47;;;;;;;22.27;8.27;;;;;;;21.58;77.14;98073.94;4988429;28;20245;-61
2023/10/21 09:57:13;;;;;;;11.75;6.22;;;;;;;21.79;73.45;98097.78;4989090;28;20306;-61
2023/10/21 09:59:44;;;;;;;18.38;6.57;;;;;;;21.76;73.75;98061.25;4989083;28;20335;-61
2023/10/21 10:02:11;;;;;;;16.38;6.68;;;;;;;21.96;73.64;98073.69;4989407;28;20191;-61
2023/10/21 10:04:38;;;;;;;13.18;7.43;;;;;;;22.12;73.77;98085.81;4997651;28;20192;-61
2023/10/21 10:07:07;;;;;;;10.50;6.28;;;;;;;22.18;73.99;98093.81;5028490;28;20194;-61
2023/10/21 10:09:38;;;;;;;12.55;6.22;;;;;;;22.27;72.98;98070.78;5028361;28;20178;-61
2023/10/21 10:12:17;;;;;;;12.98;6.82;;;;;;;22.21;71.51;98040.72;5028430;28;20208;-61
2023/10/21 10:14:43;;;;;;;8.65;6.25;;;;;;;22.46;71.47;98062.31;5028301;28;20281;-61
2023/10/21 10:17:09;;;;;;;13.32;6.15;;;;;;;22.50;69.48;98056.47;5048881;28;20318;-61
2023/10/21 10:19:38;;;;;;;10.32;5.75;;;;;;;22.78;69.13;98080.28;5090924;28;20168;-61
2023/10/21 10:22:18;;;;;;;13.63;6.45;;;;;;;22.56;69.44;98018.78;5048071;28;20250;-61
2023/10/21 10:25:10;;;;;;;11.02;5.88;;;;;;;22.93;69.48;98062.53;5048155;28;20560;-61
2023/10/21 10:27:37;;;;;;;10.13;5.40;;;;;;;23.02;67.05;98045.56;5048065;28;20229;-61
2023/10/21 10:30:08;;;;;;;10.70;5.07;;;;;;;23.12;65.58;98035.47;5048332;28;20181;-61
2023/10/21 10:32:43;;;;;;;6.68;5.43;;;;;;;23.31;65.65;98029.56;5048131;28;20272;-61
2023/10/21 10:35:08;;;;;;;8.02;5.50;;;;;;;23.43;65.17;98034.09;5048159;28;20173;-60
2023/10/21 10:37:35;;;;;;;10.93;5.20;;;;;;;23.66;64.34;98044.38;5047919;28;20216;-60
2023/10/21 10:40:15;;;;;;;14.55;5.85;;;;;;;23.78;65.01;98038.31;5047928;28;20206;-60
2023/10/21 10:42:40;;;;;;;10.15;4.68;;;;;;;23.86;58.03;98025.75;5048258;28;20272;-60
2023/10/21 10:45:06;;;;;;;12.93;4.20;;;;;;;24.17;55.50;98041.97;5047761;28;20367;-61
2023/10/21 10:47:32;;;;;;;9.48;3.95;;;;;;;24.25;54.86;98031.22;5047816;28;20197;-61
2023/10/21 10:49:59;;;;;;;8.32;4.20;;;;;;;24.24;55.17;98019.00;5047736;28;20173;-61
2023/10/21 10:52:31;;;;;;;8.43;4.78;;;;;;;24.50;51.29;98037.56;5047793;28;20189;-61
2023/10/21 10:54:58;;;;;;;8.77;3.90;;;;;;;24.68;51.54;98021.94;5047872;28;20193;-61
2023/10/21 10:57:23;;;;;;;17.30;5.00;;;;;;;24.83;52.03;98025.22;5047784;28;20232;-61
2023/10/21 10:59:50;;;;;;;9.50;4.60;;;;;;;25.03;50.52;98047.19;5074319;28;20646;-61
2023/10/21 11:02:19;;;;;;;10.00;4.28;;;;;;;25.16;50.21;98041.91;5090344;28;20184;-61
2023/10/21 11:04:48;;;;;;;10.63;4.90;;;;;;;25.24;51.31;98044.34;5091659;28;20189;-61
2023/10/21 11:07:21;;;;;;;14.35;4.88;;;;;;;25.11;52.18;98004.63;5093908;28;20172;-61
2023/10/21 11:09:46;;;;;;;13.20;4.35;;;;;;;25.27;51.65;98012.19;5094328;28;20212;-61
2023/10/21 11:12:14;;;;;;;7.88;4.13;;;;;;;25.28;51.88;98007.69;5093832;28;20262;-61
2023/10/21 11:14:39;;;;;;;11.32;4.25;;;;;;;25.48;51.11;98027.81;5108895;28;20543;-61